Andover, New Hampshire
Current Conditions -  °F | °C
As of 3:55 PM on Tuesday 25 Nov 2014 (Local Time) from KLCI Reporting Station
Clear Clear  
Wind Chill: 52°   Ceiling: Unl
Heat Index: 52°   Visibility: 10mi
Dew Point: 25°   Wind: 9mph
Humidity: 35%   Direction: 240°WSW
Pressure: 29.86"   Gusts: NA
Location:  43.44°N, 71.82°W
Report Text: KLCI 252055Z AUTO 24008KT 10SM CLR 11/M04 A2986 RMK AO1 52017
Loading
Personal Weather Stations






























Interactive Weather Map New forecast layout! Learn more

10-Day Weather Forecast

Advertisements
Track Severe Weather on mobile